sensor_id;sensor_type;location;lat;lon;timestamp;temperature;humidity
19847;DHT22;10084;50.518;8.588;2023-04-16T00:01:23;9.80;83.40
19847;DHT22;10084;50.518;8.588;2023-04-16T00:03:48;9.80;83.40
19847;DHT22;10084;50.518;8.588;2023-04-16T00:06:14;9.80;83.40
19847;DHT22;10084;50.518;8.588;2023-04-16T00:08:39;9.80;83.50
19847;DHT22;10084;50.518;8.588;2023-04-16T00:11:05;9.70;83.50
19847;DHT22;10084;50.518;8.588;2023-04-16T00:13:31;9.80;83.60
19847;DHT22;10084;50.518;8.588;2023-04-16T00:15:57;9.80;83.60
19847;DHT22;10084;50.518;8.588;2023-04-16T00:18:23;9.70;83.60
19847;DHT22;10084;50.518;8.588;2023-04-16T00:20:49;9.80;83.70
19847;DHT22;10084;50.518;8.588;2023-04-16T00:23:15;9.80;83.80
19847;DHT22;10084;50.518;8.588;2023-04-16T00:25:42;9.80;83.80
19847;DHT22;10084;50.518;8.588;2023-04-16T00:28:08;9.80;83.80
19847;DHT22;10084;50.518;8.588;2023-04-16T00:30:34;9.80;83.80
19847;DHT22;10084;50.518;8.588;2023-04-16T00:32:59;9.80;83.90
19847;DHT22;10084;50.518;8.588;2023-04-16T00:35:26;9.80;84.20
19847;DHT22;10084;50.518;8.588;2023-04-16T00:37:51;9.80;83.80
19847;DHT22;10084;50.518;8.588;2023-04-16T00:40:17;9.80;83.90
19847;DHT22;10084;50.518;8.588;2023-04-16T00:42:44;9.80;84.00
19847;DHT22;10084;50.518;8.588;2023-04-16T00:45:10;9.80;83.90
19847;DHT22;10084;50.518;8.588;2023-04-16T00:47:36;9.80;83.90
19847;DHT22;10084;50.518;8.588;2023-04-16T00:50:03;9.80;83.90
19847;DHT22;10084;50.518;8.588;2023-04-16T00:52:30;9.80;84.00
19847;DHT22;10084;50.518;8.588;2023-04-16T00:54:58;9.80;84.00
19847;DHT22;10084;50.518;8.588;2023-04-16T00:57:24;9.80;83.90
19847;DHT22;10084;50.518;8.588;2023-04-16T00:59:50;9.80;84.00
19847;DHT22;10084;50.518;8.588;2023-04-16T01:02:16;9.80;84.10
19847;DHT22;10084;50.518;8.588;2023-04-16T01:04:42;9.80;84.10
19847;DHT22;10084;50.518;8.588;2023-04-16T01:07:08;9.90;84.20
19847;DHT22;10084;50.518;8.588;2023-04-16T01:09:33;9.90;84.20
19847;DHT22;10084;50.518;8.588;2023-04-16T01:11:59;9.90;84.20
19847;DHT22;10084;50.518;8.588;2023-04-16T01:14:26;9.90;84.20
19847;DHT22;10084;50.518;8.588;2023-04-16T01:16:52;9.90;84.10
19847;DHT22;10084;50.518;8.588;2023-04-16T01:19:17;9.90;84.10
19847;DHT22;10084;50.518;8.588;2023-04-16T01:21:43;9.90;84.10
19847;DHT22;10084;50.518;8.588;2023-04-16T01:24:09;9.90;84.10
19847;DHT22;10084;50.518;8.588;2023-04-16T01:26:35;9.90;84.10
19847;DHT22;10084;50.518;8.588;2023-04-16T01:29:01;9.90;84.10
19847;DHT22;10084;50.518;8.588;2023-04-16T01:31:27;9.90;84.10
19847;DHT22;10084;50.518;8.588;2023-04-16T01:33:58;9.90;84.20
19847;DHT22;10084;50.518;8.588;2023-04-16T01:36:25;9.90;84.10
19847;DHT22;10084;50.518;8.588;2023-04-16T01:38:51;9.90;84.10
19847;DHT22;10084;50.518;8.588;2023-04-16T01:41:17;10.00;84.20
19847;DHT22;10084;50.518;8.588;2023-04-16T01:43:42;9.90;84.10
19847;DHT22;10084;50.518;8.588;2023-04-16T01:46:13;10.00;84.20
19847;DHT22;10084;50.518;8.588;2023-04-16T01:48:39;10.00;84.10
19847;DHT22;10084;50.518;8.588;2023-04-16T01:51:05;10.00;84.10
19847;DHT22;10084;50.518;8.588;2023-04-16T01:53:31;10.00;84.10
19847;DHT22;10084;50.518;8.588;2023-04-16T01:55:57;9.90;84.10
19847;DHT22;10084;50.518;8.588;2023-04-16T01:58:22;10.00;84.10
19847;DHT22;10084;50.518;8.588;2023-04-16T02:00:48;9.90;84.00
19847;DHT22;10084;50.518;8.588;2023-04-16T02:03:14;9.90;84.00
19847;DHT22;10084;50.518;8.588;2023-04-16T02:05:42;9.90;84.20
19847;DHT22;10084;50.518;8.588;2023-04-16T02:08:07;9.90;84.40
19847;DHT22;10084;50.518;8.588;2023-04-16T02:10:33;9.90;84.50
19847;DHT22;10084;50.518;8.588;2023-04-16T02:12:59;9.90;84.50
19847;DHT22;10084;50.518;8.588;2023-04-16T02:15:25;10.00;84.60
19847;DHT22;10084;50.518;8.588;2023-04-16T02:17:50;10.00;84.50
19847;DHT22;10084;50.518;8.588;2023-04-16T02:20:21;10.00;84.50
19847;DHT22;10084;50.518;8.588;2023-04-16T02:22:52;10.00;84.50
19847;DHT22;10084;50.518;8.588;2023-04-16T02:25:21;10.00;84.50
19847;DHT22;10084;50.518;8.588;2023-04-16T02:27:47;10.00;84.50
19847;DHT22;10084;50.518;8.588;2023-04-16T02:30:24;10.10;84.50
19847;DHT22;10084;50.518;8.588;2023-04-16T02:32:51;10.10;84.40
19847;DHT22;10084;50.518;8.588;2023-04-16T02:35:18;10.10;84.40
19847;DHT22;10084;50.518;8.588;2023-04-16T02:37:44;10.10;84.30
19847;DHT22;10084;50.518;8.588;2023-04-16T02:40:10;10.10;84.30
19847;DHT22;10084;50.518;8.588;2023-04-16T02:42:36;10.10;84.30
19847;DHT22;10084;50.518;8.588;2023-04-16T02:45:01;10.10;84.20
19847;DHT22;10084;50.518;8.588;2023-04-16T02:47:27;10.10;84.20
19847;DHT22;10084;50.518;8.588;2023-04-16T02:49:53;10.20;84.20
19847;DHT22;10084;50.518;8.588;2023-04-16T02:52:19;10.10;84.20
19847;DHT22;10084;50.518;8.588;2023-04-16T02:54:45;10.10;84.20
19847;DHT22;10084;50.518;8.588;2023-04-16T02:57:10;10.10;84.30
19847;DHT22;10084;50.518;8.588;2023-04-16T02:59:36;10.10;84.40
19847;DHT22;10084;50.518;8.588;2023-04-16T03:02:02;10.10;84.40
19847;DHT22;10084;50.518;8.588;2023-04-16T03:04:28;10.10;84.40
19847;DHT22;10084;50.518;8.588;2023-04-16T03:06:53;10.10;84.40
19847;DHT22;10084;50.518;8.588;2023-04-16T03:09:19;10.10;84.30
19847;DHT22;10084;50.518;8.588;2023-04-16T03:11:45;10.10;84.20
19847;DHT22;10084;50.518;8.588;2023-04-16T03:14:11;10.10;84.10
19847;DHT22;10084;50.518;8.588;2023-04-16T03:16:36;10.10;84.10
19847;DHT22;10084;50.518;8.588;2023-04-16T03:19:02;10.00;84.10
19847;DHT22;10084;50.518;8.588;2023-04-16T03:21:28;10.00;84.00
19847;DHT22;10084;50.518;8.588;2023-04-16T03:23:54;9.90;83.90
19847;DHT22;10084;50.518;8.588;2023-04-16T03:26:21;9.90;84.00
19847;DHT22;10084;50.518;8.588;2023-04-16T03:28:47;9.80;84.00
19847;DHT22;10084;50.518;8.588;2023-04-16T03:31:13;9.70;84.00
19847;DHT22;10084;50.518;8.588;2023-04-16T03:33:39;9.70;84.20
19847;DHT22;10084;50.518;8.588;2023-04-16T03:36:05;9.60;84.30
19847;DHT22;10084;50.518;8.588;2023-04-16T03:38:31;9.60;84.50
19847;DHT22;10084;50.518;8.588;2023-04-16T03:40:58;9.50;84.60
19847;DHT22;10084;50.518;8.588;2023-04-16T03:43:24;9.40;84.70
19847;DHT22;10084;50.518;8.588;2023-04-16T03:45:50;9.40;85.00
19847;DHT22;10084;50.518;8.588;2023-04-16T03:48:18;9.40;85.10
19847;DHT22;10084;50.518;8.588;2023-04-16T03:50:45;9.40;85.30
19847;DHT22;10084;50.518;8.588;2023-04-16T03:53:15;9.40;85.40
19847;DHT22;10084;50.518;8.588;2023-04-16T03:55:41;9.40;85.50
19847;DHT22;10084;50.518;8.588;2023-04-16T03:58:08;9.40;85.60
19847;DHT22;10084;50.518;8.588;2023-04-16T04:00:35;9.40;85.70
19847;DHT22;10084;50.518;8.588;2023-04-16T04:03:11;9.40;85.70
19847;DHT22;10084;50.518;8.588;2023-04-16T04:05:41;9.40;85.80
19847;DHT22;10084;50.518;8.588;2023-04-16T04:08:09;9.50;85.80
19847;DHT22;10084;50.518;8.588;2023-04-16T04:10:36;9.50;85.80
19847;DHT22;10084;50.518;8.588;2023-04-16T04:13:04;9.50;85.80
19847;DHT22;10084;50.518;8.588;2023-04-16T04:15:31;9.50;85.70
19847;DHT22;10084;50.518;8.588;2023-04-16T04:17:58;9.40;85.70
19847;DHT22;10084;50.518;8.588;2023-04-16T04:20:24;9.40;85.60
19847;DHT22;10084;50.518;8.588;2023-04-16T04:22:51;9.40;85.60
19847;DHT22;10084;50.518;8.588;2023-04-16T04:25:19;9.40;85.60
19847;DHT22;10084;50.518;8.588;2023-04-16T04:27:45;9.30;85.70
19847;DHT22;10084;50.518;8.588;2023-04-16T04:30:11;9.30;85.90
19847;DHT22;10084;50.518;8.588;2023-04-16T04:32:38;9.30;86.20
19847;DHT22;10084;50.518;8.588;2023-04-16T04:35:04;9.30;86.40
19847;DHT22;10084;50.518;8.588;2023-04-16T04:37:30;9.30;86.40
19847;DHT22;10084;50.518;8.588;2023-04-16T04:39:56;9.30;86.40
19847;DHT22;10084;50.518;8.588;2023-04-16T04:42:22;9.30;86.50
19847;DHT22;10084;50.518;8.588;2023-04-16T04:44:48;9.30;86.60
19847;DHT22;10084;50.518;8.588;2023-04-16T04:47:14;9.40;86.70
19847;DHT22;10084;50.518;8.588;2023-04-16T04:49:40;9.40;86.80
19847;DHT22;10084;50.518;8.588;2023-04-16T04:52:06;9.40;86.80
19847;DHT22;10084;50.518;8.588;2023-04-16T04:54:32;9.50;86.90
19847;DHT22;10084;50.518;8.588;2023-04-16T04:56:58;9.50;86.90
19847;DHT22;10084;50.518;8.588;2023-04-16T04:59:24;9.50;86.80
19847;DHT22;10084;50.518;8.588;2023-04-16T05:01:50;9.60;86.90
19847;DHT22;10084;50.518;8.588;2023-04-16T05:04:16;9.60;86.70
19847;DHT22;10084;50.518;8.588;2023-04-16T05:06:42;9.60;86.70
19847;DHT22;10084;50.518;8.588;2023-04-16T05:09:09;9.60;86.70
19847;DHT22;10084;50.518;8.588;2023-04-16T05:11:37;9.60;86.70
19847;DHT22;10084;50.518;8.588;2023-04-16T05:14:03;9.70;86.90
19847;DHT22;10084;50.518;8.588;2023-04-16T05:16:28;9.70;86.90
19847;DHT22;10084;50.518;8.588;2023-04-16T05:18:54;9.70;86.90
19847;DHT22;10084;50.518;8.588;2023-04-16T05:21:21;9.70;86.80
19847;DHT22;10084;50.518;8.588;2023-04-16T05:23:46;9.70;86.80
19847;DHT22;10084;50.518;8.588;2023-04-16T05:26:12;9.80;86.90
19847;DHT22;10084;50.518;8.588;2023-04-16T05:28:38;9.80;86.80
19847;DHT22;10084;50.518;8.588;2023-04-16T05:31:04;9.80;86.80
19847;DHT22;10084;50.518;8.588;2023-04-16T05:33:29;9.80;86.90
19847;DHT22;10084;50.518;8.588;2023-04-16T05:35:55;9.80;87.00
19847;DHT22;10084;50.518;8.588;2023-04-16T05:38:21;9.80;87.20
19847;DHT22;10084;50.518;8.588;2023-04-16T05:40:46;9.80;87.30
19847;DHT22;10084;50.518;8.588;2023-04-16T05:43:12;9.80;87.40
19847;DHT22;10084;50.518;8.588;2023-04-16T05:45:38;9.80;87.40
19847;DHT22;10084;50.518;8.588;2023-04-16T05:48:08;9.80;87.50
19847;DHT22;10084;50.518;8.588;2023-04-16T05:50:35;9.80;87.60
19847;DHT22;10084;50.518;8.588;2023-04-16T05:53:03;9.80;87.60
19847;DHT22;10084;50.518;8.588;2023-04-16T05:55:30;9.80;87.80
19847;DHT22;10084;50.518;8.588;2023-04-16T05:57:56;9.90;87.90
19847;DHT22;10084;50.518;8.588;2023-04-16T06:00:21;9.90;88.00
19847;DHT22;10084;50.518;8.588;2023-04-16T06:02:47;9.90;88.00
19847;DHT22;10084;50.518;8.588;2023-04-16T06:05:13;9.90;88.10
19847;DHT22;10084;50.518;8.588;2023-04-16T06:07:39;10.00;88.40
19847;DHT22;10084;50.518;8.588;2023-04-16T06:10:05;10.00;88.40
19847;DHT22;10084;50.518;8.588;2023-04-16T06:12:31;10.00;88.30
19847;DHT22;10084;50.518;8.588;2023-04-16T06:14:56;10.10;88.30
19847;DHT22;10084;50.518;8.588;2023-04-16T06:17:22;10.10;88.40
19847;DHT22;10084;50.518;8.588;2023-04-16T06:19:48;10.10;88.50
19847;DHT22;10084;50.518;8.588;2023-04-16T06:22:14;10.10;88.50
19847;DHT22;10084;50.518;8.588;2023-04-16T06:24:40;10.20;88.50
19847;DHT22;10084;50.518;8.588;2023-04-16T06:27:06;10.20;88.50
19847;DHT22;10084;50.518;8.588;2023-04-16T06:29:31;10.20;88.50
19847;DHT22;10084;50.518;8.588;2023-04-16T06:31:57;10.30;88.50
19847;DHT22;10084;50.518;8.588;2023-04-16T06:34:23;10.30;88.40
19847;DHT22;10084;50.518;8.588;2023-04-16T06:36:49;10.30;88.20
19847;DHT22;10084;50.518;8.588;2023-04-16T06:39:15;10.30;88.30
19847;DHT22;10084;50.518;8.588;2023-04-16T06:41:41;10.40;88.20
19847;DHT22;10084;50.518;8.588;2023-04-16T06:44:07;10.40;88.30
19847;DHT22;10084;50.518;8.588;2023-04-16T06:46:32;10.40;88.40
19847;DHT22;10084;50.518;8.588;2023-04-16T06:48:58;10.40;88.50
19847;DHT22;10084;50.518;8.588;2023-04-16T06:51:24;10.50;88.60
19847;DHT22;10084;50.518;8.588;2023-04-16T06:53:51;10.50;88.50
19847;DHT22;10084;50.518;8.588;2023-04-16T06:56:16;10.50;88.40
19847;DHT22;10084;50.518;8.588;2023-04-16T06:58:42;10.50;88.60
19847;DHT22;10084;50.518;8.588;2023-04-16T07:01:08;10.60;88.80
19847;DHT22;10084;50.518;8.588;2023-04-16T07:03:34;10.70;89.00
19847;DHT22;10084;50.518;8.588;2023-04-16T07:06:00;10.70;89.00
19847;DHT22;10084;50.518;8.588;2023-04-16T07:08:26;10.80;88.60
19847;DHT22;10084;50.518;8.588;2023-04-16T07:10:52;10.80;88.50
19847;DHT22;10084;50.518;8.588;2023-04-16T07:13:19;10.80;88.40
19847;DHT22;10084;50.518;8.588;2023-04-16T07:15:45;10.90;88.20
19847;DHT22;10084;50.518;8.588;2023-04-16T07:18:11;10.90;88.10
19847;DHT22;10084;50.518;8.588;2023-04-16T07:20:36;10.90;88.20
19847;DHT22;10084;50.518;8.588;2023-04-16T07:23:02;11.00;88.30
19847;DHT22;10084;50.518;8.588;2023-04-16T07:25:28;11.10;88.20
19847;DHT22;10084;50.518;8.588;2023-04-16T07:27:53;11.10;88.10
19847;DHT22;10084;50.518;8.588;2023-04-16T07:30:19;11.20;88.70
19847;DHT22;10084;50.518;8.588;2023-04-16T07:32:45;11.20;87.90
19847;DHT22;10084;50.518;8.588;2023-04-16T07:35:11;11.30;88.00
19847;DHT22;10084;50.518;8.588;2023-04-16T07:37:36;11.40;88.10
19847;DHT22;10084;50.518;8.588;2023-04-16T07:40:02;11.50;88.30
19847;DHT22;10084;50.518;8.588;2023-04-16T07:42:28;11.60;88.60
19847;DHT22;10084;50.518;8.588;2023-04-16T07:44:54;11.80;88.70
19847;DHT22;10084;50.518;8.588;2023-04-16T07:47:20;12.10;88.60
19847;DHT22;10084;50.518;8.588;2023-04-16T07:49:48;12.20;88.00
19847;DHT22;10084;50.518;8.588;2023-04-16T07:52:15;12.40;87.10
19847;DHT22;10084;50.518;8.588;2023-04-16T07:54:40;12.50;86.70
19847;DHT22;10084;50.518;8.588;2023-04-16T07:57:06;12.70;86.40
19847;DHT22;10084;50.518;8.588;2023-04-16T07:59:32;12.80;86.20
19847;DHT22;10084;50.518;8.588;2023-04-16T08:01:57;12.90;85.50
19847;DHT22;10084;50.518;8.588;2023-04-16T08:04:23;13.00;84.90
19847;DHT22;10084;50.518;8.588;2023-04-16T08:06:50;13.10;84.70
19847;DHT22;10084;50.518;8.588;2023-04-16T08:09:16;13.10;84.40
19847;DHT22;10084;50.518;8.588;2023-04-16T08:11:41;13.10;83.90
19847;DHT22;10084;50.518;8.588;2023-04-16T08:14:07;13.10;83.40
19847;DHT22;10084;50.518;8.588;2023-04-16T08:16:33;13.10;83.30
19847;DHT22;10084;50.518;8.588;2023-04-16T08:18:59;13.20;83.60
19847;DHT22;10084;50.518;8.588;2023-04-16T08:21:28;13.20;83.40
19847;DHT22;10084;50.518;8.588;2023-04-16T08:23:55;13.30;83.80
19847;DHT22;10084;50.518;8.588;2023-04-16T08:26:20;13.50;84.10
19847;DHT22;10084;50.518;8.588;2023-04-16T08:28:46;13.60;83.60
19847;DHT22;10084;50.518;8.588;2023-04-16T08:31:12;13.80;83.10
19847;DHT22;10084;50.518;8.588;2023-04-16T08:33:39;13.90;82.60
19847;DHT22;10084;50.518;8.588;2023-04-16T08:36:05;14.00;82.40
19847;DHT22;10084;50.518;8.588;2023-04-16T08:38:30;14.00;82.30
19847;DHT22;10084;50.518;8.588;2023-04-16T08:41:02;14.20;82.30
19847;DHT22;10084;50.518;8.588;2023-04-16T08:43:32;14.30;82.00
19847;DHT22;10084;50.518;8.588;2023-04-16T08:45:59;14.50;82.00
19847;DHT22;10084;50.518;8.588;2023-04-16T08:48:31;14.60;81.30
19847;DHT22;10084;50.518;8.588;2023-04-16T08:50:59;15.00;81.20
19847;DHT22;10084;50.518;8.588;2023-04-16T08:53:35;15.10;80.30
19847;DHT22;10084;50.518;8.588;2023-04-16T08:56:09;15.10;79.70
19847;DHT22;10084;50.518;8.588;2023-04-16T08:58:36;15.00;79.00
19847;DHT22;10084;50.518;8.588;2023-04-16T09:01:03;15.00;78.80
19847;DHT22;10084;50.518;8.588;2023-04-16T09:03:30;15.00;79.20
19847;DHT22;10084;50.518;8.588;2023-04-16T09:05:57;15.10;79.10
19847;DHT22;10084;50.518;8.588;2023-04-16T09:08:28;15.10;78.40
19847;DHT22;10084;50.518;8.588;2023-04-16T09:10:55;15.10;77.60
19847;DHT22;10084;50.518;8.588;2023-04-16T09:13:21;15.00;77.40
19847;DHT22;10084;50.518;8.588;2023-04-16T09:15:53;14.90;77.30
19847;DHT22;10084;50.518;8.588;2023-04-16T09:18:22;14.70;77.30
19847;DHT22;10084;50.518;8.588;2023-04-16T09:20:49;14.60;77.10
19847;DHT22;10084;50.518;8.588;2023-04-16T09:23:16;14.50;77.70
19847;DHT22;10084;50.518;8.588;2023-04-16T09:25:42;14.40;77.10
19847;DHT22;10084;50.518;8.588;2023-04-16T09:28:08;14.30;77.30
19847;DHT22;10084;50.518;8.588;2023-04-16T09:30:36;14.20;77.20
19847;DHT22;10084;50.518;8.588;2023-04-16T09:33:13;14.20;77.20
19847;DHT22;10084;50.518;8.588;2023-04-16T09:35:48;14.10;77.20
19847;DHT22;10084;50.518;8.588;2023-04-16T09:38:15;14.10;77.30
19847;DHT22;10084;50.518;8.588;2023-04-16T09:40:41;14.10;77.20
19847;DHT22;10084;50.518;8.588;2023-04-16T09:43:14;14.00;77.20
19847;DHT22;10084;50.518;8.588;2023-04-16T09:45:54;14.00;77.10
19847;DHT22;10084;50.518;8.588;2023-04-16T09:48:29;14.00;77.10
19847;DHT22;10084;50.518;8.588;2023-04-16T09:50:56;13.90;76.90
19847;DHT22;10084;50.518;8.588;2023-04-16T09:53:30;14.00;77.00
19847;DHT22;10084;50.518;8.588;2023-04-16T09:56:05;13.90;76.80
19847;DHT22;10084;50.518;8.588;2023-04-16T09:58:35;13.90;76.50
19847;DHT22;10084;50.518;8.588;2023-04-16T10:01:02;13.80;76.40
19847;DHT22;10084;50.518;8.588;2023-04-16T10:03:34;13.80;76.40
19847;DHT22;10084;50.518;8.588;2023-04-16T10:08:32;13.80;76.40
19847;DHT22;10084;50.518;8.588;2023-04-16T10:10:58;13.80;76.50
19847;DHT22;10084;50.518;8.588;2023-04-16T10:13:24;13.80;76.30
19847;DHT22;10084;50.518;8.588;2023-04-16T10:16:04;13.80;76.30
19847;DHT22;10084;50.518;8.588;2023-04-16T10:18:30;13.80;76.20
19847;DHT22;10084;50.518;8.588;2023-04-16T10:20:57;13.80;76.10
19847;DHT22;10084;50.518;8.588;2023-04-16T10:23:23;13.80;76.00
19847;DHT22;10084;50.518;8.588;2023-04-16T10:25:49;13.80;75.80
19847;DHT22;10084;50.518;8.588;2023-04-16T10:28:16;13.80;75.80
19847;DHT22;10084;50.518;8.588;2023-04-16T10:30:46;13.80;75.80
19847;DHT22;10084;50.518;8.588;2023-04-16T10:33:22;13.80;75.80
19847;DHT22;10084;50.518;8.588;2023-04-16T10:35:49;13.70;75.80
19847;DHT22;10084;50.518;8.588;2023-04-16T10:38:25;13.70;75.80
19847;DHT22;10084;50.518;8.588;2023-04-16T10:40:59;13.70;75.80
19847;DHT22;10084;50.518;8.588;2023-04-16T10:43:25;13.70;75.90
19847;DHT22;10084;50.518;8.588;2023-04-16T10:45:52;13.70;76.00
19847;DHT22;10084;50.518;8.588;2023-04-16T10:48:18;13.70;76.00
19847;DHT22;10084;50.518;8.588;2023-04-16T10:50:56;13.60;75.90
19847;DHT22;10084;50.518;8.588;2023-04-16T10:53:26;13.60;76.00
19847;DHT22;10084;50.518;8.588;2023-04-16T10:56:10;13.60;76.00
19847;DHT22;10084;50.518;8.588;2023-04-16T10:58:37;13.50;76.00
19847;DHT22;10084;50.518;8.588;2023-04-16T11:01:10;13.50;76.10
19847;DHT22;10084;50.518;8.588;2023-04-16T11:03:46;13.50;76.10
19847;DHT22;10084;50.518;8.588;2023-04-16T11:06:16;13.60;76.10
19847;DHT22;10084;50.518;8.588;2023-04-16T11:08:44;13.60;76.00
19847;DHT22;10084;50.518;8.588;2023-04-16T11:11:13;13.60;75.90
19847;DHT22;10084;50.518;8.588;2023-04-16T11:13:42;13.60;75.80
19847;DHT22;10084;50.518;8.588;2023-04-16T11:16:09;13.50;75.70
19847;DHT22;10084;50.518;8.588;2023-04-16T11:18:35;13.50;75.70
19847;DHT22;10084;50.518;8.588;2023-04-16T11:21:07;13.50;75.70
19847;DHT22;10084;50.518;8.588;2023-04-16T11:23:45;13.60;75.70
19847;DHT22;10084;50.518;8.588;2023-04-16T11:26:27;13.60;75.60
19847;DHT22;10084;50.518;8.588;2023-04-16T11:28:55;13.60;75.50
19847;DHT22;10084;50.518;8.588;2023-04-16T11:31:22;13.60;75.60
19847;DHT22;10084;50.518;8.588;2023-04-16T11:33:49;13.70;75.70
19847;DHT22;10084;50.518;8.588;2023-04-16T11:36:15;13.80;75.70
19847;DHT22;10084;50.518;8.588;2023-04-16T11:38:41;13.90;75.60
19847;DHT22;10084;50.518;8.588;2023-04-16T11:41:08;13.90;75.40
19847;DHT22;10084;50.518;8.588;2023-04-16T11:43:35;14.00;75.30
19847;DHT22;10084;50.518;8.588;2023-04-16T11:46:05;14.00;75.20
19847;DHT22;10084;50.518;8.588;2023-04-16T11:48:53;14.10;75.20
19847;DHT22;10084;50.518;8.588;2023-04-16T11:51:20;14.20;75.20
19847;DHT22;10084;50.518;8.588;2023-04-16T11:53:54;14.30;75.10
19847;DHT22;10084;50.518;8.588;2023-04-16T11:56:28;14.50;75.20
19847;DHT22;10084;50.518;8.588;2023-04-16T11:59:11;14.70;75.00
19847;DHT22;10084;50.518;8.588;2023-04-16T12:01:39;14.80;74.80
19847;DHT22;10084;50.518;8.588;2023-04-16T12:04:06;15.00;74.50
19847;DHT22;10084;50.518;8.588;2023-04-16T12:06:32;15.00;74.30
19847;DHT22;10084;50.518;8.588;2023-04-16T12:08:58;15.10;74.40
19847;DHT22;10084;50.518;8.588;2023-04-16T12:11:39;15.40;74.80
19847;DHT22;10084;50.518;8.588;2023-04-16T12:14:09;15.70;74.10
19847;DHT22;10084;50.518;8.588;2023-04-16T12:16:36;15.90;73.60
19847;DHT22;10084;50.518;8.588;2023-04-16T12:19:02;15.90;73.00
19847;DHT22;10084;50.518;8.588;2023-04-16T12:21:54;15.90;72.90
19847;DHT22;10084;50.518;8.588;2023-04-16T12:24:24;15.90;73.00
19847;DHT22;10084;50.518;8.588;2023-04-16T12:26:53;16.00;73.20
19847;DHT22;10084;50.518;8.588;2023-04-16T12:29:27;16.20;73.50
19847;DHT22;10084;50.518;8.588;2023-04-16T12:31:53;16.60;73.60
19847;DHT22;10084;50.518;8.588;2023-04-16T12:34:20;17.00;72.80
19847;DHT22;10084;50.518;8.588;2023-04-16T12:37:04;17.30;72.00
19847;DHT22;10084;50.518;8.588;2023-04-16T12:39:30;17.50;71.20
19847;DHT22;10084;50.518;8.588;2023-04-16T12:41:56;17.60;70.70
19847;DHT22;10084;50.518;8.588;2023-04-16T12:44:22;17.80;70.60
19847;DHT22;10084;50.518;8.588;2023-04-16T12:46:48;18.00;70.30
19847;DHT22;10084;50.518;8.588;2023-04-16T12:49:14;18.20;69.80
19847;DHT22;10084;50.518;8.588;2023-04-16T12:51:40;18.30;69.20
19847;DHT22;10084;50.518;8.588;2023-04-16T12:54:06;18.20;68.60
19847;DHT22;10084;50.518;8.588;2023-04-16T12:56:32;18.00;68.10
19847;DHT22;10084;50.518;8.588;2023-04-16T12:58:58;17.80;68.10
19847;DHT22;10084;50.518;8.588;2023-04-16T13:01:24;17.50;68.20
19847;DHT22;10084;50.518;8.588;2023-04-16T13:03:50;17.40;68.50
19847;DHT22;10084;50.518;8.588;2023-04-16T13:06:16;17.30;69.00
19847;DHT22;10084;50.518;8.588;2023-04-16T13:08:43;17.50;69.20
19847;DHT22;10084;50.518;8.588;2023-04-16T13:11:09;17.80;69.00
19847;DHT22;10084;50.518;8.588;2023-04-16T13:13:35;18.10;68.10
19847;DHT22;10084;50.518;8.588;2023-04-16T13:16:02;18.20;67.40
19847;DHT22;10084;50.518;8.588;2023-04-16T13:18:31;18.10;66.70
19847;DHT22;10084;50.518;8.588;2023-04-16T13:20:57;17.90;66.30
19847;DHT22;10084;50.518;8.588;2023-04-16T13:23:23;17.80;66.20
19847;DHT22;10084;50.518;8.588;2023-04-16T13:25:49;17.60;66.30
19847;DHT22;10084;50.518;8.588;2023-04-16T13:28:15;17.50;66.50
19847;DHT22;10084;50.518;8.588;2023-04-16T13:30:41;17.50;66.40
19847;DHT22;10084;50.518;8.588;2023-04-16T13:33:08;17.50;66.40
19847;DHT22;10084;50.518;8.588;2023-04-16T13:35:34;17.40;66.40
19847;DHT22;10084;50.518;8.588;2023-04-16T13:38:00;17.50;66.30
19847;DHT22;10084;50.518;8.588;2023-04-16T13:40:26;17.50;66.20
19847;DHT22;10084;50.518;8.588;2023-04-16T13:42:51;17.50;66.00
19847;DHT22;10084;50.518;8.588;2023-04-16T13:45:17;17.50;65.80
19847;DHT22;10084;50.518;8.588;2023-04-16T13:47:45;17.50;65.40
19847;DHT22;10084;50.518;8.588;2023-04-16T13:50:11;17.50;65.10
19847;DHT22;10084;50.518;8.588;2023-04-16T13:52:37;17.40;64.80
19847;DHT22;10084;50.518;8.588;2023-04-16T13:55:03;17.30;64.60
19847;DHT22;10084;50.518;8.588;2023-04-16T13:57:29;17.20;64.50
19847;DHT22;10084;50.518;8.588;2023-04-16T13:59:56;17.10;64.50
19847;DHT22;10084;50.518;8.588;2023-04-16T14:02:22;17.00;64.60
19847;DHT22;10084;50.518;8.588;2023-04-16T14:04:50;16.90;64.50
19847;DHT22;10084;50.518;8.588;2023-04-16T14:07:16;16.80;64.50
19847;DHT22;10084;50.518;8.588;2023-04-16T14:09:42;16.70;64.50
19847;DHT22;10084;50.518;8.588;2023-04-16T14:12:07;16.60;64.30
19847;DHT22;10084;50.518;8.588;2023-04-16T14:14:34;16.50;64.20
19847;DHT22;10084;50.518;8.588;2023-04-16T14:17:00;16.30;64.20
19847;DHT22;10084;50.518;8.588;2023-04-16T14:19:27;16.20;64.30
19847;DHT22;10084;50.518;8.588;2023-04-16T14:21:53;16.10;64.50
19847;DHT22;10084;50.518;8.588;2023-04-16T14:24:19;16.10;64.60
19847;DHT22;10084;50.518;8.588;2023-04-16T14:26:45;16.00;64.50
19847;DHT22;10084;50.518;8.588;2023-04-16T14:29:11;15.90;64.30
19847;DHT22;10084;50.518;8.588;2023-04-16T14:31:37;15.80;64.40
19847;DHT22;10084;50.518;8.588;2023-04-16T14:34:03;15.60;64.40
19847;DHT22;10084;50.518;8.588;2023-04-16T14:36:32;15.40;64.50
19847;DHT22;10084;50.518;8.588;2023-04-16T14:38:57;15.30;64.50
19847;DHT22;10084;50.518;8.588;2023-04-16T14:41:24;15.20;65.40
19847;DHT22;10084;50.518;8.588;2023-04-16T14:43:50;15.10;64.80
19847;DHT22;10084;50.518;8.588;2023-04-16T14:46:16;15.00;65.00
19847;DHT22;10084;50.518;8.588;2023-04-16T14:48:45;14.90;65.90
19847;DHT22;10084;50.518;8.588;2023-04-16T14:51:11;14.90;65.50
19847;DHT22;10084;50.518;8.588;2023-04-16T14:53:37;14.90;65.60
19847;DHT22;10084;50.518;8.588;2023-04-16T14:56:03;15.00;65.70
19847;DHT22;10084;50.518;8.588;2023-04-16T14:58:30;15.00;65.70
19847;DHT22;10084;50.518;8.588;2023-04-16T15:00:59;15.00;65.70
19847;DHT22;10084;50.518;8.588;2023-04-16T15:03:25;15.00;65.60
19847;DHT22;10084;50.518;8.588;2023-04-16T15:05:52;15.00;65.60
19847;DHT22;10084;50.518;8.588;2023-04-16T15:08:21;15.10;65.60
19847;DHT22;10084;50.518;8.588;2023-04-16T15:10:47;15.10;65.60
19847;DHT22;10084;50.518;8.588;2023-04-16T15:13:13;15.10;65.70
19847;DHT22;10084;50.518;8.588;2023-04-16T15:15:39;15.10;65.60
19847;DHT22;10084;50.518;8.588;2023-04-16T15:18:05;15.10;65.50
19847;DHT22;10084;50.518;8.588;2023-04-16T15:20:31;15.10;66.20
19847;DHT22;10084;50.518;8.588;2023-04-16T15:22:57;15.10;65.60
19847;DHT22;10084;50.518;8.588;2023-04-16T15:25:23;15.00;65.50
19847;DHT22;10084;50.518;8.588;2023-04-16T15:27:50;15.00;65.50
19847;DHT22;10084;50.518;8.588;2023-04-16T15:30:16;15.00;65.50
19847;DHT22;10084;50.518;8.588;2023-04-16T15:32:43;15.00;65.50
19847;DHT22;10084;50.518;8.588;2023-04-16T15:35:09;15.00;65.50
19847;DHT22;10084;50.518;8.588;2023-04-16T15:37:35;15.00;65.50